Terminal Aerodrome Forecast
Issued by NWS

Home | Current Version | Previous Version | Text Only | Print | Product List | Glossary On
Versions: 1 2 3 4 5 6 7 8 9 10 11 12 13 14 15 16 17 18 19 20 21
000
FTUS46 KSEW 310300 AAB
TAFBFI
TAF AMD
KBFI 310327Z 3103/3124 VRB03KT 2SM BR SCT002
      TEMPO 3103/3106 1/4SM FG VV001
     FM310600 00000KT 1/4SM FG VV001
     FM312000 VRB03KT 2SM BR BKN002=

USA.gov is the U.S. government's official web portal to all federal, state and local government web resources and services.